sensor_id;sensor_type;location;lat;lon;timestamp;temperature;humidity
10905;DHT22;5505;51.450;9.254;2023-07-31T00:00:02;15.80;99.90
10905;DHT22;5505;51.450;9.254;2023-07-31T00:02:49;15.80;99.90
10905;DHT22;5505;51.450;9.254;2023-07-31T00:05:36;15.80;99.90
10905;DHT22;5505;51.450;9.254;2023-07-31T00:08:22;15.80;99.90
10905;DHT22;5505;51.450;9.254;2023-07-31T00:11:09;15.70;99.90
10905;DHT22;5505;51.450;9.254;2023-07-31T00:13:56;15.70;99.90
10905;DHT22;5505;51.450;9.254;2023-07-31T00:16:44;15.70;99.90
10905;DHT22;5505;51.450;9.254;2023-07-31T00:19:31;15.60;99.90
10905;DHT22;5505;51.450;9.254;2023-07-31T00:22:17;15.60;99.90
10905;DHT22;5505;51.450;9.254;2023-07-31T00:25:04;15.60;99.90
10905;DHT22;5505;51.450;9.254;2023-07-31T00:27:51;15.60;99.90
10905;DHT22;5505;51.450;9.254;2023-07-31T00:30:38;15.50;99.90
10905;DHT22;5505;51.450;9.254;2023-07-31T00:33:27;15.50;99.90
10905;DHT22;5505;51.450;9.254;2023-07-31T00:36:14;15.50;99.90
10905;DHT22;5505;51.450;9.254;2023-07-31T00:39:00;15.50;99.90
10905;DHT22;5505;51.450;9.254;2023-07-31T00:41:47;15.50;99.90
10905;DHT22;5505;51.450;9.254;2023-07-31T00:44:34;15.50;99.90
10905;DHT22;5505;51.450;9.254;2023-07-31T00:47:21;15.50;99.90
10905;DHT22;5505;51.450;9.254;2023-07-31T00:50:09;16.00;99.90
10905;DHT22;5505;51.450;9.254;2023-07-31T00:52:56;15.50;99.90
10905;DHT22;5505;51.450;9.254;2023-07-31T00:55:43;15.50;99.90
10905;DHT22;5505;51.450;9.254;2023-07-31T00:58:31;15.50;99.90
10905;DHT22;5505;51.450;9.254;2023-07-31T01:01:17;15.70;99.90
10905;DHT22;5505;51.450;9.254;2023-07-31T01:04:04;15.50;99.90
10905;DHT22;5505;51.450;9.254;2023-07-31T01:06:57;15.60;99.90
10905;DHT22;5505;51.450;9.254;2023-07-31T01:09:52;15.60;99.90
10905;DHT22;5505;51.450;9.254;2023-07-31T01:12:45;15.50;99.90
10905;DHT22;5505;51.450;9.254;2023-07-31T01:15:32;15.50;99.90
10905;DHT22;5505;51.450;9.254;2023-07-31T01:18:18;15.50;99.90
10905;DHT22;5505;51.450;9.254;2023-07-31T01:21:18;15.60;99.90
10905;DHT22;5505;51.450;9.254;2023-07-31T01:24:29;15.60;99.90
10905;DHT22;5505;51.450;9.254;2023-07-31T01:27:24;15.60;99.90
10905;DHT22;5505;51.450;9.254;2023-07-31T01:30:15;16.10;99.90
10905;DHT22;5505;51.450;9.254;2023-07-31T01:33:03;15.60;99.90
10905;DHT22;5505;51.450;9.254;2023-07-31T01:35:52;15.90;99.90
10905;DHT22;5505;51.450;9.254;2023-07-31T01:38:40;15.60;99.90
10905;DHT22;5505;51.450;9.254;2023-07-31T01:41:27;15.60;99.90
10905;DHT22;5505;51.450;9.254;2023-07-31T01:44:15;15.60;99.90
10905;DHT22;5505;51.450;9.254;2023-07-31T01:47:02;15.60;99.90
10905;DHT22;5505;51.450;9.254;2023-07-31T01:49:48;15.60;99.90
10905;DHT22;5505;51.450;9.254;2023-07-31T01:52:35;15.60;99.90
10905;DHT22;5505;51.450;9.254;2023-07-31T01:55:22;15.60;99.90
10905;DHT22;5505;51.450;9.254;2023-07-31T01:58:09;15.60;99.90
10905;DHT22;5505;51.450;9.254;2023-07-31T02:00:57;15.70;99.90
10905;DHT22;5505;51.450;9.254;2023-07-31T02:03:44;15.70;99.90
10905;DHT22;5505;51.450;9.254;2023-07-31T02:06:31;15.60;99.90
10905;DHT22;5505;51.450;9.254;2023-07-31T02:09:18;15.60;99.90
10905;DHT22;5505;51.450;9.254;2023-07-31T02:12:05;15.60;99.90
10905;DHT22;5505;51.450;9.254;2023-07-31T02:14:53;15.60;99.90
10905;DHT22;5505;51.450;9.254;2023-07-31T02:17:42;15.60;99.90
10905;DHT22;5505;51.450;9.254;2023-07-31T02:20:28;15.60;99.90
10905;DHT22;5505;51.450;9.254;2023-07-31T02:23:15;15.60;99.90
10905;DHT22;5505;51.450;9.254;2023-07-31T02:26:02;15.60;99.90
10905;DHT22;5505;51.450;9.254;2023-07-31T02:28:49;15.60;99.90
10905;DHT22;5505;51.450;9.254;2023-07-31T02:31:35;15.60;99.90
10905;DHT22;5505;51.450;9.254;2023-07-31T02:34:23;15.70;99.90
10905;DHT22;5505;51.450;9.254;2023-07-31T02:37:10;15.70;99.90
10905;DHT22;5505;51.450;9.254;2023-07-31T02:39:57;15.60;99.90
10905;DHT22;5505;51.450;9.254;2023-07-31T02:42:44;15.70;99.90
10905;DHT22;5505;51.450;9.254;2023-07-31T02:45:30;15.70;99.90
10905;DHT22;5505;51.450;9.254;2023-07-31T02:48:17;15.70;99.90
10905;DHT22;5505;51.450;9.254;2023-07-31T02:51:05;15.70;99.90
10905;DHT22;5505;51.450;9.254;2023-07-31T02:53:52;15.80;99.90
10905;DHT22;5505;51.450;9.254;2023-07-31T02:56:39;15.80;99.90
10905;DHT22;5505;51.450;9.254;2023-07-31T02:59:27;15.80;99.90
10905;DHT22;5505;51.450;9.254;2023-07-31T03:02:14;16.40;99.90
10905;DHT22;5505;51.450;9.254;2023-07-31T03:05:01;15.90;99.90
10905;DHT22;5505;51.450;9.254;2023-07-31T03:07:49;15.90;99.90
10905;DHT22;5505;51.450;9.254;2023-07-31T03:10:36;15.90;99.90
10905;DHT22;5505;51.450;9.254;2023-07-31T03:13:22;16.00;99.90
10905;DHT22;5505;51.450;9.254;2023-07-31T03:16:09;16.00;99.90
10905;DHT22;5505;51.450;9.254;2023-07-31T03:18:56;16.00;99.90
10905;DHT22;5505;51.450;9.254;2023-07-31T03:21:43;16.00;99.90
10905;DHT22;5505;51.450;9.254;2023-07-31T03:24:31;16.00;99.90
10905;DHT22;5505;51.450;9.254;2023-07-31T03:27:18;16.10;99.90
10905;DHT22;5505;51.450;9.254;2023-07-31T03:30:07;16.10;99.90
10905;DHT22;5505;51.450;9.254;2023-07-31T03:32:54;16.20;99.90
10905;DHT22;5505;51.450;9.254;2023-07-31T03:35:41;16.60;99.90
10905;DHT22;5505;51.450;9.254;2023-07-31T03:38:27;16.20;99.90
10905;DHT22;5505;51.450;9.254;2023-07-31T03:41:16;16.20;99.90
10905;DHT22;5505;51.450;9.254;2023-07-31T03:44:03;16.30;99.90
10905;DHT22;5505;51.450;9.254;2023-07-31T03:46:49;16.30;99.90
10905;DHT22;5505;51.450;9.254;2023-07-31T03:49:36;16.30;99.90
10905;DHT22;5505;51.450;9.254;2023-07-31T03:52:23;16.30;99.90
10905;DHT22;5505;51.450;9.254;2023-07-31T03:55:10;16.30;99.90
10905;DHT22;5505;51.450;9.254;2023-07-31T03:57:58;16.30;99.90
10905;DHT22;5505;51.450;9.254;2023-07-31T04:00:46;16.30;99.90
10905;DHT22;5505;51.450;9.254;2023-07-31T04:03:34;16.30;99.90
10905;DHT22;5505;51.450;9.254;2023-07-31T04:06:21;16.30;99.90
10905;DHT22;5505;51.450;9.254;2023-07-31T04:09:07;16.20;99.90
10905;DHT22;5505;51.450;9.254;2023-07-31T04:11:54;16.20;99.90
10905;DHT22;5505;51.450;9.254;2023-07-31T04:14:42;16.30;99.90
10905;DHT22;5505;51.450;9.254;2023-07-31T04:17:29;16.20;99.90
10905;DHT22;5505;51.450;9.254;2023-07-31T04:20:16;16.30;99.90
10905;DHT22;5505;51.450;9.254;2023-07-31T04:23:02;16.30;99.90
10905;DHT22;5505;51.450;9.254;2023-07-31T04:25:49;17.20;99.90
10905;DHT22;5505;51.450;9.254;2023-07-31T04:28:36;16.30;99.90
10905;DHT22;5505;51.450;9.254;2023-07-31T04:31:24;16.30;99.90
10905;DHT22;5505;51.450;9.254;2023-07-31T04:34:11;16.20;99.90
10905;DHT22;5505;51.450;9.254;2023-07-31T04:36:58;15.90;99.90
10905;DHT22;5505;51.450;9.254;2023-07-31T04:39:44;16.30;99.90
10905;DHT22;5505;51.450;9.254;2023-07-31T04:42:31;16.30;99.90
10905;DHT22;5505;51.450;9.254;2023-07-31T04:45:18;16.30;99.90
10905;DHT22;5505;51.450;9.254;2023-07-31T04:48:06;16.40;99.90
10905;DHT22;5505;51.450;9.254;2023-07-31T04:50:53;16.40;99.90
10905;DHT22;5505;51.450;9.254;2023-07-31T04:53:40;16.40;99.90
10905;DHT22;5505;51.450;9.254;2023-07-31T04:56:26;16.30;99.90
10905;DHT22;5505;51.450;9.254;2023-07-31T04:59:13;16.40;99.90
10905;DHT22;5505;51.450;9.254;2023-07-31T05:02:00;16.40;99.90
10905;DHT22;5505;51.450;9.254;2023-07-31T05:04:48;16.40;99.90
10905;DHT22;5505;51.450;9.254;2023-07-31T05:07:35;16.50;99.90
10905;DHT22;5505;51.450;9.254;2023-07-31T05:10:22;16.50;99.90
10905;DHT22;5505;51.450;9.254;2023-07-31T05:13:09;16.40;99.90
10905;DHT22;5505;51.450;9.254;2023-07-31T05:15:55;16.40;99.90
10905;DHT22;5505;51.450;9.254;2023-07-31T05:18:42;16.50;99.90
10905;DHT22;5505;51.450;9.254;2023-07-31T05:21:30;16.50;99.90
10905;DHT22;5505;51.450;9.254;2023-07-31T05:24:17;16.50;99.90
10905;DHT22;5505;51.450;9.254;2023-07-31T05:27:05;16.50;99.90
10905;DHT22;5505;51.450;9.254;2023-07-31T05:29:52;16.50;99.90
10905;DHT22;5505;51.450;9.254;2023-07-31T05:32:38;16.60;99.90
10905;DHT22;5505;51.450;9.254;2023-07-31T05:35:25;16.60;99.90
10905;DHT22;5505;51.450;9.254;2023-07-31T05:38:13;16.60;99.90
10905;DHT22;5505;51.450;9.254;2023-07-31T05:41:00;16.70;99.90
10905;DHT22;5505;51.450;9.254;2023-07-31T05:43:47;16.60;99.90
10905;DHT22;5505;51.450;9.254;2023-07-31T05:46:34;17.70;99.90
10905;DHT22;5505;51.450;9.254;2023-07-31T05:49:20;16.70;99.90
10905;DHT22;5505;51.450;9.254;2023-07-31T05:52:08;16.60;99.90
10905;DHT22;5505;51.450;9.254;2023-07-31T05:54:56;16.60;99.90
10905;DHT22;5505;51.450;9.254;2023-07-31T05:57:43;16.70;99.90
10905;DHT22;5505;51.450;9.254;2023-07-31T06:00:31;16.70;99.90
10905;DHT22;5505;51.450;9.254;2023-07-31T06:03:18;16.80;99.90
10905;DHT22;5505;51.450;9.254;2023-07-31T06:06:05;17.40;99.90
10905;DHT22;5505;51.450;9.254;2023-07-31T06:08:51;16.90;99.90
10905;DHT22;5505;51.450;9.254;2023-07-31T06:11:40;16.90;99.90
10905;DHT22;5505;51.450;9.254;2023-07-31T06:14:26;17.80;99.90
10905;DHT22;5505;51.450;9.254;2023-07-31T06:17:13;16.80;99.90
10905;DHT22;5505;51.450;9.254;2023-07-31T06:20:00;16.90;99.90
10905;DHT22;5505;51.450;9.254;2023-07-31T06:22:47;16.80;99.90
10905;DHT22;5505;51.450;9.254;2023-07-31T06:25:33;16.70;99.90
10905;DHT22;5505;51.450;9.254;2023-07-31T06:28:27;16.70;99.90
10905;DHT22;5505;51.450;9.254;2023-07-31T06:31:14;16.70;99.90
10905;DHT22;5505;51.450;9.254;2023-07-31T06:34:01;16.70;99.90
10905;DHT22;5505;51.450;9.254;2023-07-31T06:36:48;16.70;99.90
10905;DHT22;5505;51.450;9.254;2023-07-31T06:39:34;16.70;99.90
10905;DHT22;5505;51.450;9.254;2023-07-31T06:42:22;16.60;99.90
10905;DHT22;5505;51.450;9.254;2023-07-31T06:45:11;16.50;99.90
10905;DHT22;5505;51.450;9.254;2023-07-31T06:47:58;16.50;99.90
10905;DHT22;5505;51.450;9.254;2023-07-31T06:50:47;16.40;99.90
10905;DHT22;5505;51.450;9.254;2023-07-31T06:53:33;16.50;99.90
10905;DHT22;5505;51.450;9.254;2023-07-31T06:56:21;16.50;99.90
10905;DHT22;5505;51.450;9.254;2023-07-31T06:59:08;16.30;99.90
10905;DHT22;5505;51.450;9.254;2023-07-31T07:01:56;16.40;99.90
10905;DHT22;5505;51.450;9.254;2023-07-31T07:04:42;16.40;99.90
10905;DHT22;5505;51.450;9.254;2023-07-31T07:07:29;16.40;99.90
10905;DHT22;5505;51.450;9.254;2023-07-31T07:10:16;16.40;99.90
10905;DHT22;5505;51.450;9.254;2023-07-31T07:13:03;16.40;99.90
10905;DHT22;5505;51.450;9.254;2023-07-31T07:15:50;16.30;99.90
10905;DHT22;5505;51.450;9.254;2023-07-31T07:18:38;16.30;99.90
10905;DHT22;5505;51.450;9.254;2023-07-31T07:21:25;16.30;99.90
10905;DHT22;5505;51.450;9.254;2023-07-31T07:24:12;16.40;99.90
10905;DHT22;5505;51.450;9.254;2023-07-31T07:26:58;16.40;99.90
10905;DHT22;5505;51.450;9.254;2023-07-31T07:29:46;16.50;99.90
10905;DHT22;5505;51.450;9.254;2023-07-31T07:32:33;16.50;99.90
10905;DHT22;5505;51.450;9.254;2023-07-31T07:35:21;16.50;99.90
10905;DHT22;5505;51.450;9.254;2023-07-31T07:38:08;16.60;99.90
10905;DHT22;5505;51.450;9.254;2023-07-31T07:40:55;16.60;99.90
10905;DHT22;5505;51.450;9.254;2023-07-31T07:43:48;16.60;99.90
10905;DHT22;5505;51.450;9.254;2023-07-31T07:46:35;16.60;99.90
10905;DHT22;5505;51.450;9.254;2023-07-31T07:49:22;16.60;99.90
10905;DHT22;5505;51.450;9.254;2023-07-31T07:52:10;16.60;99.90
10905;DHT22;5505;51.450;9.254;2023-07-31T07:54:57;16.70;99.90
10905;DHT22;5505;51.450;9.254;2023-07-31T07:57:43;16.70;99.90
10905;DHT22;5505;51.450;9.254;2023-07-31T08:00:30;16.80;99.90
10905;DHT22;5505;51.450;9.254;2023-07-31T08:03:17;16.90;99.90
10905;DHT22;5505;51.450;9.254;2023-07-31T08:06:04;16.90;99.90
10905;DHT22;5505;51.450;9.254;2023-07-31T08:08:52;17.60;99.90
10905;DHT22;5505;51.450;9.254;2023-07-31T08:11:39;17.00;99.90
10905;DHT22;5505;51.450;9.254;2023-07-31T08:14:26;17.10;99.90
10905;DHT22;5505;51.450;9.254;2023-07-31T08:17:12;17.10;99.90
10905;DHT22;5505;51.450;9.254;2023-07-31T08:19:59;17.10;99.90
10905;DHT22;5505;51.450;9.254;2023-07-31T08:22:46;17.00;99.90
10905;DHT22;5505;51.450;9.254;2023-07-31T08:25:36;17.10;99.90
10905;DHT22;5505;51.450;9.254;2023-07-31T08:28:23;17.20;99.90
10905;DHT22;5505;51.450;9.254;2023-07-31T08:31:09;17.20;99.90
10905;DHT22;5505;51.450;9.254;2023-07-31T08:33:57;17.20;99.90
10905;DHT22;5505;51.450;9.254;2023-07-31T08:36:43;17.30;99.90
10905;DHT22;5505;51.450;9.254;2023-07-31T08:39:30;17.40;99.90
10905;DHT22;5505;51.450;9.254;2023-07-31T08:42:18;17.50;99.90
10905;DHT22;5505;51.450;9.254;2023-07-31T08:45:06;17.50;99.90
10905;DHT22;5505;51.450;9.254;2023-07-31T08:47:53;17.50;99.90
10905;DHT22;5505;51.450;9.254;2023-07-31T08:50:40;17.50;99.90
10905;DHT22;5505;51.450;9.254;2023-07-31T08:53:27;17.60;99.90
10905;DHT22;5505;51.450;9.254;2023-07-31T08:56:14;17.60;99.90
10905;DHT22;5505;51.450;9.254;2023-07-31T08:59:04;17.50;99.90
10905;DHT22;5505;51.450;9.254;2023-07-31T09:01:53;17.50;99.90
10905;DHT22;5505;51.450;9.254;2023-07-31T09:04:42;17.40;99.90
10905;DHT22;5505;51.450;9.254;2023-07-31T09:07:29;17.50;99.90
10905;DHT22;5505;51.450;9.254;2023-07-31T09:10:18;17.60;99.90
10905;DHT22;5505;51.450;9.254;2023-07-31T09:13:05;17.60;99.90
10905;DHT22;5505;51.450;9.254;2023-07-31T09:15:54;17.50;99.90
10905;DHT22;5505;51.450;9.254;2023-07-31T09:18:53;17.60;99.90
10905;DHT22;5505;51.450;9.254;2023-07-31T09:21:48;17.70;99.90
10905;DHT22;5505;51.450;9.254;2023-07-31T09:24:35;18.20;99.90
10905;DHT22;5505;51.450;9.254;2023-07-31T09:27:24;17.70;99.90
10905;DHT22;5505;51.450;9.254;2023-07-31T09:30:11;17.70;99.90
10905;DHT22;5505;51.450;9.254;2023-07-31T09:33:04;17.70;99.90
10905;DHT22;5505;51.450;9.254;2023-07-31T09:35:51;17.80;99.90
10905;DHT22;5505;51.450;9.254;2023-07-31T09:38:38;17.90;99.90
10905;DHT22;5505;51.450;9.254;2023-07-31T09:41:25;17.90;99.90
10905;DHT22;5505;51.450;9.254;2023-07-31T09:44:12;17.90;99.90
10905;DHT22;5505;51.450;9.254;2023-07-31T09:46:59;18.00;99.90
10905;DHT22;5505;51.450;9.254;2023-07-31T09:49:47;17.90;99.90
10905;DHT22;5505;51.450;9.254;2023-07-31T09:52:34;18.10;99.90
10905;DHT22;5505;51.450;9.254;2023-07-31T09:55:21;18.10;99.90
10905;DHT22;5505;51.450;9.254;2023-07-31T09:58:09;18.20;99.90
10905;DHT22;5505;51.450;9.254;2023-07-31T10:00:58;18.20;99.90
10905;DHT22;5505;51.450;9.254;2023-07-31T10:03:46;18.20;99.90
10905;DHT22;5505;51.450;9.254;2023-07-31T10:06:35;18.20;99.90
10905;DHT22;5505;51.450;9.254;2023-07-31T10:09:24;18.20;99.90
10905;DHT22;5505;51.450;9.254;2023-07-31T10:12:14;18.20;99.90
10905;DHT22;5505;51.450;9.254;2023-07-31T10:15:03;18.50;99.90
10905;DHT22;5505;51.450;9.254;2023-07-31T10:17:50;18.20;99.90
10905;DHT22;5505;51.450;9.254;2023-07-31T10:20:38;18.30;99.90
10905;DHT22;5505;51.450;9.254;2023-07-31T10:23:26;18.30;99.90
10905;DHT22;5505;51.450;9.254;2023-07-31T10:26:13;18.40;99.90
10905;DHT22;5505;51.450;9.254;2023-07-31T10:29:01;18.20;99.90
10905;DHT22;5505;51.450;9.254;2023-07-31T10:31:48;18.30;99.90
10905;DHT22;5505;51.450;9.254;2023-07-31T10:34:35;18.80;99.90
10905;DHT22;5505;51.450;9.254;2023-07-31T10:37:24;18.30;99.90
10905;DHT22;5505;51.450;9.254;2023-07-31T10:40:15;18.40;99.90
10905;DHT22;5505;51.450;9.254;2023-07-31T10:43:02;18.40;99.90
10905;DHT22;5505;51.450;9.254;2023-07-31T10:45:49;18.50;99.90
10905;DHT22;5505;51.450;9.254;2023-07-31T10:48:37;18.50;99.90
10905;DHT22;5505;51.450;9.254;2023-07-31T10:51:32;18.50;99.90
10905;DHT22;5505;51.450;9.254;2023-07-31T10:54:20;18.50;99.90
10905;DHT22;5505;51.450;9.254;2023-07-31T10:57:20;18.40;99.90
10905;DHT22;5505;51.450;9.254;2023-07-31T11:00:18;18.60;99.90
10905;DHT22;5505;51.450;9.254;2023-07-31T11:03:07;18.60;99.90
10905;DHT22;5505;51.450;9.254;2023-07-31T11:06:00;18.70;99.90
10905;DHT22;5505;51.450;9.254;2023-07-31T11:08:50;18.80;99.90
10905;DHT22;5505;51.450;9.254;2023-07-31T11:11:37;18.90;99.90
10905;DHT22;5505;51.450;9.254;2023-07-31T11:14:25;19.80;99.90
10905;DHT22;5505;51.450;9.254;2023-07-31T11:17:12;19.00;99.90
10905;DHT22;5505;51.450;9.254;2023-07-31T11:19:59;19.00;99.90
10905;DHT22;5505;51.450;9.254;2023-07-31T11:22:46;19.10;99.90
10905;DHT22;5505;51.450;9.254;2023-07-31T11:25:34;19.20;99.90
10905;DHT22;5505;51.450;9.254;2023-07-31T11:28:21;19.30;99.90
10905;DHT22;5505;51.450;9.254;2023-07-31T11:31:09;19.30;99.90
10905;DHT22;5505;51.450;9.254;2023-07-31T11:34:04;19.40;99.90
10905;DHT22;5505;51.450;9.254;2023-07-31T11:36:54;19.30;99.90
10905;DHT22;5505;51.450;9.254;2023-07-31T11:39:42;19.30;99.90
10905;DHT22;5505;51.450;9.254;2023-07-31T11:42:28;19.30;99.90
10905;DHT22;5505;51.450;9.254;2023-07-31T11:45:15;19.30;99.90
10905;DHT22;5505;51.450;9.254;2023-07-31T11:48:04;19.20;99.90
10905;DHT22;5505;51.450;9.254;2023-07-31T11:50:51;19.10;99.90
10905;DHT22;5505;51.450;9.254;2023-07-31T11:53:43;19.10;99.90
10905;DHT22;5505;51.450;9.254;2023-07-31T11:56:30;18.90;99.90
10905;DHT22;5505;51.450;9.254;2023-07-31T11:59:17;18.80;99.90
10905;DHT22;5505;51.450;9.254;2023-07-31T12:02:05;18.70;99.90
10905;DHT22;5505;51.450;9.254;2023-07-31T12:04:53;18.60;99.90
10905;DHT22;5505;51.450;9.254;2023-07-31T12:07:48;18.60;99.90
10905;DHT22;5505;51.450;9.254;2023-07-31T12:10:35;19.20;99.90
10905;DHT22;5505;51.450;9.254;2023-07-31T12:13:23;18.80;99.90
10905;DHT22;5505;51.450;9.254;2023-07-31T12:16:11;18.90;99.90
10905;DHT22;5505;51.450;9.254;2023-07-31T12:18:59;18.90;99.90
10905;DHT22;5505;51.450;9.254;2023-07-31T12:21:47;19.00;99.90
10905;DHT22;5505;51.450;9.254;2023-07-31T12:24:34;19.00;99.90
10905;DHT22;5505;51.450;9.254;2023-07-31T12:27:23;19.00;99.90
10905;DHT22;5505;51.450;9.254;2023-07-31T12:30:26;19.00;99.90
10905;DHT22;5505;51.450;9.254;2023-07-31T12:33:14;19.10;99.90
10905;DHT22;5505;51.450;9.254;2023-07-31T12:36:02;19.20;99.90
10905;DHT22;5505;51.450;9.254;2023-07-31T12:38:52;19.10;99.90
10905;DHT22;5505;51.450;9.254;2023-07-31T12:41:39;19.10;99.90
10905;DHT22;5505;51.450;9.254;2023-07-31T12:44:25;19.20;99.90
10905;DHT22;5505;51.450;9.254;2023-07-31T12:47:12;19.30;99.90
10905;DHT22;5505;51.450;9.254;2023-07-31T12:50:00;19.30;99.90
10905;DHT22;5505;51.450;9.254;2023-07-31T12:52:47;19.20;99.90
10905;DHT22;5505;51.450;9.254;2023-07-31T12:55:35;19.20;99.90
10905;DHT22;5505;51.450;9.254;2023-07-31T12:58:22;19.10;99.90
10905;DHT22;5505;51.450;9.254;2023-07-31T13:01:09;19.10;99.90
10905;DHT22;5505;51.450;9.254;2023-07-31T13:03:56;19.00;99.90
10905;DHT22;5505;51.450;9.254;2023-07-31T13:06:43;19.00;99.90
10905;DHT22;5505;51.450;9.254;2023-07-31T13:09:31;19.10;99.90
10905;DHT22;5505;51.450;9.254;2023-07-31T13:12:19;19.10;99.90
10905;DHT22;5505;51.450;9.254;2023-07-31T13:15:07;19.40;99.90
10905;DHT22;5505;51.450;9.254;2023-07-31T13:17:54;19.50;99.90
10905;DHT22;5505;51.450;9.254;2023-07-31T13:20:40;19.60;99.90
10905;DHT22;5505;51.450;9.254;2023-07-31T13:23:27;19.60;99.90
10905;DHT22;5505;51.450;9.254;2023-07-31T13:26:14;19.80;99.90
10905;DHT22;5505;51.450;9.254;2023-07-31T13:29:02;20.00;99.90
10905;DHT22;5505;51.450;9.254;2023-07-31T13:31:49;20.10;99.90
10905;DHT22;5505;51.450;9.254;2023-07-31T13:34:35;20.20;99.90
10905;DHT22;5505;51.450;9.254;2023-07-31T13:37:22;20.10;99.90
10905;DHT22;5505;51.450;9.254;2023-07-31T13:40:10;20.20;99.90
10905;DHT22;5505;51.450;9.254;2023-07-31T13:42:57;19.80;99.90
10905;DHT22;5505;51.450;9.254;2023-07-31T13:45:45;20.60;99.90
10905;DHT22;5505;51.450;9.254;2023-07-31T13:48:32;20.60;99.90
10905;DHT22;5505;51.450;9.254;2023-07-31T13:51:18;20.70;99.90
10905;DHT22;5505;51.450;9.254;2023-07-31T13:54:05;20.80;99.90
10905;DHT22;5505;51.450;9.254;2023-07-31T13:56:53;20.80;99.90
10905;DHT22;5505;51.450;9.254;2023-07-31T13:59:39;20.80;99.90
10905;DHT22;5505;51.450;9.254;2023-07-31T14:02:28;20.60;99.90
10905;DHT22;5505;51.450;9.254;2023-07-31T14:05:14;20.50;99.90
10905;DHT22;5505;51.450;9.254;2023-07-31T14:08:01;20.40;99.90
10905;DHT22;5505;51.450;9.254;2023-07-31T14:10:48;20.40;99.90
10905;DHT22;5505;51.450;9.254;2023-07-31T14:13:35;20.30;99.90
10905;DHT22;5505;51.450;9.254;2023-07-31T14:16:22;20.30;99.90
10905;DHT22;5505;51.450;9.254;2023-07-31T14:19:10;20.30;99.90
10905;DHT22;5505;51.450;9.254;2023-07-31T14:21:58;20.20;99.90
10905;DHT22;5505;51.450;9.254;2023-07-31T14:24:45;20.20;99.90
10905;DHT22;5505;51.450;9.254;2023-07-31T14:27:32;20.10;99.90
10905;DHT22;5505;51.450;9.254;2023-07-31T14:30:19;20.10;99.90
10905;DHT22;5505;51.450;9.254;2023-07-31T14:33:06;20.10;99.90
10905;DHT22;5505;51.450;9.254;2023-07-31T14:35:55;20.00;99.90
10905;DHT22;5505;51.450;9.254;2023-07-31T14:38:41;20.00;99.90
10905;DHT22;5505;51.450;9.254;2023-07-31T14:41:28;20.00;99.90
10905;DHT22;5505;51.450;9.254;2023-07-31T14:44:15;20.00;99.90
10905;DHT22;5505;51.450;9.254;2023-07-31T14:47:02;20.00;99.90
10905;DHT22;5505;51.450;9.254;2023-07-31T14:49:48;19.80;99.90
10905;DHT22;5505;51.450;9.254;2023-07-31T14:52:36;19.80;99.90
10905;DHT22;5505;51.450;9.254;2023-07-31T14:55:23;19.70;99.90
10905;DHT22;5505;51.450;9.254;2023-07-31T14:58:10;19.60;99.90
10905;DHT22;5505;51.450;9.254;2023-07-31T15:00:59;19.60;99.90
10905;DHT22;5505;51.450;9.254;2023-07-31T15:03:46;19.50;99.90
10905;DHT22;5505;51.450;9.254;2023-07-31T15:06:32;19.60;99.90
10905;DHT22;5505;51.450;9.254;2023-07-31T15:09:20;19.60;99.90
10905;DHT22;5505;51.450;9.254;2023-07-31T15:12:08;19.70;99.90
10905;DHT22;5505;51.450;9.254;2023-07-31T15:14:55;19.70;99.90
10905;DHT22;5505;51.450;9.254;2023-07-31T15:17:41;19.80;99.90
10905;DHT22;5505;51.450;9.254;2023-07-31T15:20:29;19.80;99.90
10905;DHT22;5505;51.450;9.254;2023-07-31T15:23:15;19.90;99.90
10905;DHT22;5505;51.450;9.254;2023-07-31T15:26:04;19.80;99.90
10905;DHT22;5505;51.450;9.254;2023-07-31T15:28:56;19.70;99.90
10905;DHT22;5505;51.450;9.254;2023-07-31T15:31:43;19.60;99.90
10905;DHT22;5505;51.450;9.254;2023-07-31T15:34:30;19.70;99.90
10905;DHT22;5505;51.450;9.254;2023-07-31T15:37:17;19.70;99.90
10905;DHT22;5505;51.450;9.254;2023-07-31T15:40:05;19.80;99.90
10905;DHT22;5505;51.450;9.254;2023-07-31T15:42:53;19.90;99.90
10905;DHT22;5505;51.450;9.254;2023-07-31T15:45:40;19.80;99.90
10905;DHT22;5505;51.450;9.254;2023-07-31T15:48:26;19.80;99.90
10905;DHT22;5505;51.450;9.254;2023-07-31T15:51:13;19.80;99.90
10905;DHT22;5505;51.450;9.254;2023-07-31T15:54:00;19.80;99.90
10905;DHT22;5505;51.450;9.254;2023-07-31T15:56:47;19.60;99.90
10905;DHT22;5505;51.450;9.254;2023-07-31T15:59:35;19.60;99.90
10905;DHT22;5505;51.450;9.254;2023-07-31T16:02:22;19.50;99.90
10905;DHT22;5505;51.450;9.254;2023-07-31T16:05:09;19.50;99.90
10905;DHT22;5505;51.450;9.254;2023-07-31T16:07:56;20.20;99.90
10905;DHT22;5505;51.450;9.254;2023-07-31T16:10:42;19.50;99.90
10905;DHT22;5505;51.450;9.254;2023-07-31T16:13:29;19.50;99.90
10905;DHT22;5505;51.450;9.254;2023-07-31T16:16:17;19.40;99.90
10905;DHT22;5505;51.450;9.254;2023-07-31T16:19:05;19.40;99.90
10905;DHT22;5505;51.450;9.254;2023-07-31T16:21:52;19.40;99.90
10905;DHT22;5505;51.450;9.254;2023-07-31T16:24:38;19.30;99.90
10905;DHT22;5505;51.450;9.254;2023-07-31T16:27:25;19.30;99.90
10905;DHT22;5505;51.450;9.254;2023-07-31T16:30:13;19.30;99.90
10905;DHT22;5505;51.450;9.254;2023-07-31T16:33:01;19.30;99.90
10905;DHT22;5505;51.450;9.254;2023-07-31T16:35:48;21.00;99.90
10905;DHT22;5505;51.450;9.254;2023-07-31T16:38:35;19.00;99.90
10905;DHT22;5505;51.450;9.254;2023-07-31T16:41:21;19.30;99.90
10905;DHT22;5505;51.450;9.254;2023-07-31T16:44:09;19.30;99.90
10905;DHT22;5505;51.450;9.254;2023-07-31T16:46:56;19.30;99.90
10905;DHT22;5505;51.450;9.254;2023-07-31T16:49:45;19.30;99.90
10905;DHT22;5505;51.450;9.254;2023-07-31T16:52:31;19.40;99.90
10905;DHT22;5505;51.450;9.254;2023-07-31T16:55:18;19.30;99.90
10905;DHT22;5505;51.450;9.254;2023-07-31T16:58:05;19.40;99.90
10905;DHT22;5505;51.450;9.254;2023-07-31T17:00:52;19.40;99.90
10905;DHT22;5505;51.450;9.254;2023-07-31T17:03:39;19.40;99.90
10905;DHT22;5505;51.450;9.254;2023-07-31T17:06:27;19.40;99.90
10905;DHT22;5505;51.450;9.254;2023-07-31T17:09:14;19.40;99.90
10905;DHT22;5505;51.450;9.254;2023-07-31T17:12:01;19.40;99.90
10905;DHT22;5505;51.450;9.254;2023-07-31T17:14:48;19.30;99.90
10905;DHT22;5505;51.450;9.254;2023-07-31T17:17:35;19.30;99.90
10905;DHT22;5505;51.450;9.254;2023-07-31T17:20:22;19.30;99.90
10905;DHT22;5505;51.450;9.254;2023-07-31T17:23:10;19.30;99.90
10905;DHT22;5505;51.450;9.254;2023-07-31T17:25:57;19.30;99.90
10905;DHT22;5505;51.450;9.254;2023-07-31T17:28:44;19.20;99.90
10905;DHT22;5505;51.450;9.254;2023-07-31T17:31:31;19.80;99.90
10905;DHT22;5505;51.450;9.254;2023-07-31T17:34:19;19.30;99.90
10905;DHT22;5505;51.450;9.254;2023-07-31T17:37:06;19.30;99.90
10905;DHT22;5505;51.450;9.254;2023-07-31T17:39:54;19.40;99.90
10905;DHT22;5505;51.450;9.254;2023-07-31T17:42:41;19.30;99.90
10905;DHT22;5505;51.450;9.254;2023-07-31T17:45:28;19.30;99.90
10905;DHT22;5505;51.450;9.254;2023-07-31T17:48:15;19.40;99.90
10905;DHT22;5505;51.450;9.254;2023-07-31T17:51:02;19.40;99.90
10905;DHT22;5505;51.450;9.254;2023-07-31T17:53:49;19.30;99.90